createdAt,value
2018-07-19T00:01:13.782Z,99.90
2018-07-19T00:03:42.906Z,99.90
2018-07-19T00:06:12.202Z,99.90
2018-07-19T00:08:41.262Z,99.90
2018-07-19T00:13:39.215Z,99.90
2018-07-19T00:16:08.282Z,99.90
2018-07-19T00:18:37.343Z,99.90
2018-07-19T00:21:06.426Z,99.90
2018-07-19T00:23:35.505Z,99.90
2018-07-19T00:28:33.392Z,99.90
2018-07-19T00:31:02.438Z,99.90
2018-07-19T00:33:31.589Z,99.90
2018-07-19T00:36:00.672Z,99.90
2018-07-19T00:38:29.829Z,99.90
2018-07-19T00:40:59.117Z,99.90
2018-07-19T00:43:28.172Z,99.90
2018-07-19T00:48:26.015Z,99.90
2018-07-19T00:50:55.170Z,99.90
2018-07-19T00:53:24.311Z,99.90
2018-07-19T00:55:53.376Z,99.90
2018-07-19T00:58:22.471Z,99.90
2018-07-19T01:00:51.549Z,99.90
2018-07-19T01:03:20.623Z,99.90
2018-07-19T01:05:49.718Z,99.90
2018-07-19T01:08:18.847Z,99.90
2018-07-19T01:10:47.998Z,99.90
2018-07-19T01:15:46.508Z,99.90
2018-07-19T01:18:15.606Z,99.90
2018-07-19T01:20:44.782Z,99.90
2018-07-19T01:25:42.742Z,99.90
2018-07-19T01:28:11.777Z,99.90
2018-07-19T01:30:40.932Z,99.90
2018-07-19T01:33:10.133Z,99.90
2018-07-19T01:35:40.167Z,99.90
2018-07-19T01:38:09.255Z,99.90
2018-07-19T01:40:38.388Z,99.90
2018-07-19T01:43:07.583Z,99.90
2018-07-19T01:45:36.642Z,99.90
2018-07-19T01:48:06.130Z,99.90
2018-07-19T01:50:35.244Z,99.90
2018-07-19T01:53:04.310Z,99.90
2018-07-19T01:55:33.449Z,99.90
2018-07-19T01:58:02.545Z,99.90
2018-07-19T02:07:58.438Z,99.90
2018-07-19T02:10:27.518Z,99.90
2018-07-19T02:12:56.583Z,99.90
2018-07-19T02:17:54.361Z,99.90
2018-07-19T02:20:23.426Z,99.90
2018-07-19T02:22:52.658Z,99.90
2018-07-19T02:27:50.530Z,99.90
2018-07-19T02:30:19.626Z,99.90
2018-07-19T02:35:17.412Z,99.90
2018-07-19T02:37:46.949Z,99.90
2018-07-19T02:40:16.088Z,99.90
2018-07-19T02:42:45.226Z,99.90
2018-07-19T02:50:11.777Z,99.90
2018-07-19T02:52:40.806Z,99.90
2018-07-19T02:55:09.973Z,99.90
2018-07-19T02:57:39.104Z,99.90
2018-07-19T03:00:08.179Z,99.90
2018-07-19T03:02:37.277Z,99.90
2018-07-19T03:07:35.160Z,99.90
2018-07-19T03:10:05.109Z,99.90
2018-07-19T03:12:34.157Z,99.90
2018-07-19T03:17:32.025Z,99.90
2018-07-19T03:20:01.166Z,99.90
2018-07-19T03:22:30.257Z,99.90
2018-07-19T03:24:59.422Z,99.90
2018-07-19T03:29:57.268Z,99.90
2018-07-19T03:32:26.360Z,99.90
2018-07-19T03:34:55.494Z,99.90
2018-07-19T03:39:53.472Z,99.90
2018-07-19T03:44:51.315Z,99.90
2018-07-19T03:47:20.473Z,99.90
2018-07-19T03:49:49.615Z,99.90
2018-07-19T03:52:18.705Z,99.90
2018-07-19T03:54:47.850Z,99.90
2018-07-19T03:57:16.950Z,99.90
2018-07-19T03:59:46.014Z,99.90
2018-07-19T04:02:15.106Z,99.90
2018-07-19T04:04:44.200Z,99.90
2018-07-19T04:07:13.279Z,99.90
2018-07-19T04:09:42.425Z,99.90
2018-07-19T04:14:40.380Z,99.90
2018-07-19T04:17:09.644Z,99.90
2018-07-19T04:19:38.770Z,99.90
2018-07-19T04:24:36.757Z,99.90
2018-07-19T04:29:34.671Z,99.90
2018-07-19T04:32:03.745Z,99.90
2018-07-19T04:34:32.812Z,99.90
2018-07-19T04:37:02.144Z,99.90
2018-07-19T04:41:59.984Z,99.90
2018-07-19T04:44:29.021Z,99.90
2018-07-19T04:49:30.979Z,99.90
2018-07-19T04:52:00.904Z,99.90
2018-07-19T04:56:58.753Z,99.90
2018-07-19T04:59:27.817Z,99.90
2018-07-19T05:01:56.963Z,99.90
2018-07-19T05:04:26.124Z,99.90
2018-07-19T05:06:55.266Z,99.90
2018-07-19T05:11:53.349Z,99.90
2018-07-19T05:16:51.218Z,99.90
2018-07-19T05:19:20.329Z,99.90
2018-07-19T05:21:49.370Z,99.90
2018-07-19T05:24:18.438Z,99.90
2018-07-19T05:26:47.736Z,99.90
2018-07-19T05:29:16.857Z,99.90
2018-07-19T05:31:45.965Z,99.90
2018-07-19T05:34:15.088Z,99.90
2018-07-19T05:36:44.263Z,99.90
2018-07-19T05:39:13.928Z,99.90
2018-07-19T05:41:43.195Z,99.90
2018-07-19T05:44:12.808Z,99.90
2018-07-19T05:46:41.928Z,99.90
2018-07-19T05:49:10.992Z,99.90
2018-07-19T05:51:40.173Z,99.90
2018-07-19T05:54:09.347Z,99.90
2018-07-19T05:56:38.527Z,99.90
2018-07-19T05:59:07.819Z,99.90
2018-07-19T06:01:36.903Z,99.90
2018-07-19T06:04:06.098Z,99.90
2018-07-19T06:06:35.199Z,99.90
2018-07-19T06:09:06.859Z,99.90
2018-07-19T06:11:37.244Z,99.90
2018-07-19T06:14:06.541Z,99.90
2018-07-19T06:16:35.637Z,99.90
2018-07-19T06:19:04.897Z,99.90
2018-07-19T06:21:34.026Z,99.90
2018-07-19T06:24:03.187Z,99.90
2018-07-19T06:26:32.799Z,99.90
2018-07-19T06:29:02.209Z,99.90
2018-07-19T06:31:31.372Z,99.90
2018-07-19T06:34:00.780Z,99.90
2018-07-19T06:36:29.966Z,99.90
2018-07-19T06:39:00.618Z,99.90
2018-07-19T06:41:30.392Z,99.90
2018-07-19T06:46:28.302Z,99.90
2018-07-19T06:48:58.208Z,99.90
2018-07-19T06:51:27.684Z,99.90
2018-07-19T06:53:56.778Z,99.90
2018-07-19T06:56:26.089Z,99.90
2018-07-19T06:58:55.354Z,99.90
2018-07-19T07:01:25.160Z,99.90
2018-07-19T07:03:56.485Z,99.90
2018-07-19T07:06:25.607Z,99.90
2018-07-19T07:08:54.764Z,99.90
2018-07-19T07:11:23.891Z,99.90
2018-07-19T07:13:53.030Z,99.90
2018-07-19T07:18:51.091Z,99.90
2018-07-19T07:21:20.254Z,99.90
2018-07-19T07:26:25.886Z,99.90
2018-07-19T07:28:55.028Z,99.90
2018-07-19T07:31:24.134Z,99.90
2018-07-19T07:33:53.226Z,99.90
2018-07-19T07:36:22.402Z,99.90
2018-07-19T07:38:51.586Z,99.90
2018-07-19T07:41:20.693Z,99.90
2018-07-19T07:43:50.462Z,99.90
2018-07-19T07:48:49.632Z,99.90
2018-07-19T07:51:18.736Z,99.90
2018-07-19T07:53:48.141Z,99.90
2018-07-19T07:56:19.192Z,99.90
2018-07-19T08:01:17.761Z,99.90
2018-07-19T08:03:47.517Z,99.90
2018-07-19T08:06:17.345Z,99.90
2018-07-19T08:08:46.942Z,99.90
2018-07-19T08:11:17.877Z,99.90
2018-07-19T08:13:47.638Z,99.90
2018-07-19T08:16:17.804Z,99.90
2018-07-19T08:18:51.274Z,99.90
2018-07-19T08:21:21.691Z,99.90
2018-07-19T08:23:51.122Z,99.90
2018-07-19T08:26:20.728Z,99.90
2018-07-19T08:28:49.863Z,99.90
2018-07-19T08:31:19.222Z,99.90
2018-07-19T08:38:49.796Z,99.90
2018-07-19T08:41:19.289Z,99.90
2018-07-19T08:43:49.218Z,99.90
2018-07-19T08:46:21.399Z,99.90
2018-07-19T08:48:51.160Z,99.90
2018-07-19T08:51:20.600Z,99.90
2018-07-19T08:53:52.056Z,99.90
2018-07-19T08:56:21.371Z,99.90
2018-07-19T08:58:50.621Z,99.90
2018-07-19T09:01:21.078Z,99.90
2018-07-19T09:03:51.496Z,99.90
2018-07-19T09:06:23.882Z,99.90
2018-07-19T09:11:22.369Z,99.90
2018-07-19T09:13:52.413Z,99.90
2018-07-19T09:16:22.163Z,99.90
2018-07-19T09:21:20.187Z,99.90
2018-07-19T09:23:49.317Z,99.90
2018-07-19T09:31:16.030Z,99.90
2018-07-19T09:33:45.164Z,99.90
2018-07-19T09:36:14.301Z,99.90
2018-07-19T09:41:12.250Z,99.90
2018-07-19T09:43:41.406Z,99.90
2018-07-19T09:46:10.547Z,99.90
2018-07-19T09:48:39.726Z,99.90
2018-07-19T09:51:08.817Z,99.90
2018-07-19T09:53:37.891Z,99.90
2018-07-19T09:56:07.249Z,99.90
2018-07-19T10:01:10.552Z,99.90
2018-07-19T10:03:39.731Z,99.90
2018-07-19T10:06:08.875Z,99.90
2018-07-19T10:11:06.809Z,99.90
2018-07-19T10:13:36.054Z,99.90
2018-07-19T10:16:05.141Z,99.90
2018-07-19T10:18:34.274Z,99.90
2018-07-19T10:21:03.638Z,99.90
2018-07-19T10:23:32.784Z,99.90
2018-07-19T10:26:01.853Z,99.90
2018-07-19T10:28:31.057Z,99.90
2018-07-19T10:31:00.320Z,99.90
2018-07-19T10:33:29.520Z,99.90
2018-07-19T10:38:27.503Z,99.90
2018-07-19T10:40:56.592Z,99.90
2018-07-19T10:43:26.157Z,99.90
2018-07-19T10:45:55.303Z,99.90
2018-07-19T10:48:24.495Z,99.90
2018-07-19T10:50:53.615Z,99.90
2018-07-19T10:55:51.462Z,99.90
2018-07-19T10:58:20.552Z,99.90
2018-07-19T11:00:49.663Z,99.90
2018-07-19T11:03:18.772Z,99.90
2018-07-19T11:08:16.573Z,99.90
2018-07-19T11:10:45.642Z,99.90
2018-07-19T11:15:43.418Z,99.90
2018-07-19T11:18:19.095Z,99.90
2018-07-19T11:20:48.794Z,99.90
2018-07-19T11:23:18.069Z,99.90
2018-07-19T11:25:47.251Z,99.90
2018-07-19T11:28:16.410Z,99.90
2018-07-19T11:30:45.501Z,99.90
2018-07-19T11:33:14.608Z,99.90
2018-07-19T11:35:43.683Z,99.90
2018-07-19T11:38:13.154Z,99.90
2018-07-19T11:40:42.473Z,99.90
2018-07-19T11:43:11.552Z,99.90
2018-07-19T11:45:40.723Z,99.90
2018-07-19T11:48:09.810Z,99.90
2018-07-19T11:50:38.960Z,99.90
2018-07-19T11:53:09.831Z,99.90
2018-07-19T11:55:39.598Z,99.90
2018-07-19T12:00:37.987Z,99.90
2018-07-19T12:05:35.894Z,99.90
2018-07-19T12:08:05.081Z,99.90
2018-07-19T12:10:34.205Z,99.90
2018-07-19T12:13:03.551Z,99.90
2018-07-19T12:20:30.416Z,99.00
2018-07-19T12:22:59.479Z,99.40
2018-07-19T12:25:28.813Z,99.80
2018-07-19T12:27:57.968Z,99.90
2018-07-19T12:30:27.143Z,99.90
2018-07-19T12:32:56.225Z,99.90
2018-07-19T12:35:25.731Z,99.90
2018-07-19T12:37:54.830Z,99.90
2018-07-19T12:40:24.008Z,99.90
2018-07-19T12:47:50.695Z,99.90
2018-07-19T12:50:19.799Z,99.90
2018-07-19T12:52:48.872Z,99.90
2018-07-19T12:57:47.473Z,99.90
2018-07-19T13:02:45.335Z,99.90
2018-07-19T13:07:43.214Z,99.90
2018-07-19T13:10:12.719Z,99.90
2018-07-19T13:12:41.977Z,99.90
2018-07-19T13:15:11.170Z,99.90
2018-07-19T13:22:37.951Z,98.70
2018-07-19T13:25:07.404Z,97.60
2018-07-19T13:32:40.530Z,96.90
2018-07-19T13:37:38.545Z,96.70
2018-07-19T13:40:07.748Z,97.10
2018-07-19T13:42:36.999Z,97.70
2018-07-19T13:45:06.203Z,98.20
2018-07-19T13:47:35.475Z,98.50
2018-07-19T13:50:05.516Z,98.00
2018-07-19T13:52:46.191Z,98.20
2018-07-19T13:55:15.390Z,96.00
2018-07-19T14:00:13.386Z,93.40
2018-07-19T14:02:42.781Z,91.00
2018-07-19T14:05:11.841Z,87.40
2018-07-19T14:07:41.213Z,83.10
2018-07-19T14:10:10.290Z,81.40
2018-07-19T14:12:39.438Z,77.70
2018-07-19T14:15:08.690Z,74.70
2018-07-19T14:17:37.943Z,72.70
2018-07-19T14:20:07.037Z,69.20
2018-07-19T14:22:36.146Z,61.50
2018-07-19T14:25:05.331Z,56.30
2018-07-19T14:27:34.454Z,48.10
2018-07-19T14:30:03.547Z,42.90
2018-07-19T14:32:33.609Z,42.20
2018-07-19T14:35:02.753Z,42.20
2018-07-19T14:37:31.928Z,42.90
2018-07-19T14:40:00.996Z,41.50
2018-07-19T14:42:30.438Z,43.40
2018-07-19T14:44:59.905Z,44.50
2018-07-19T14:47:29.054Z,45.20
2018-07-19T14:49:58.792Z,45.10
2018-07-19T14:52:27.952Z,44.20
2018-07-19T14:54:57.297Z,44.10
2018-07-19T14:57:26.425Z,44.60
2018-07-19T14:59:55.624Z,45.10
2018-07-19T15:02:24.653Z,44.70
2018-07-19T15:04:53.763Z,45.30
2018-07-19T15:07:22.852Z,45.30
2018-07-19T15:09:51.954Z,44.90
2018-07-19T15:12:21.295Z,44.60
2018-07-19T15:14:50.327Z,43.40
2018-07-19T15:17:19.506Z,42.30
2018-07-19T15:22:17.325Z,38.70
2018-07-19T15:24:46.367Z,37.50
2018-07-19T15:27:19.833Z,35.30
2018-07-19T15:29:49.101Z,34.50
2018-07-19T15:32:18.319Z,34.10
2018-07-19T15:34:47.409Z,32.90
2018-07-19T15:37:16.500Z,31.90
2018-07-19T15:39:46.321Z,31.20
2018-07-19T15:42:15.515Z,30.70
2018-07-19T15:44:44.668Z,29.80
2018-07-19T15:47:13.833Z,30.40
2018-07-19T15:49:42.914Z,31.70
2018-07-19T15:52:12.118Z,33.60
2018-07-19T15:54:41.342Z,35.50
2018-07-19T15:57:10.541Z,36.90
2018-07-19T15:59:39.634Z,38.10
2018-07-19T16:02:08.817Z,38.30
2018-07-19T16:04:37.975Z,39.20
2018-07-19T16:07:07.371Z,39.70
2018-07-19T16:09:36.487Z,40.10
2018-07-19T16:12:05.638Z,40.40
2018-07-19T16:17:03.786Z,40.50
2018-07-19T16:19:32.905Z,40.00
2018-07-19T16:22:02.029Z,38.70
2018-07-19T16:24:31.183Z,39.10
2018-07-19T16:27:00.249Z,38.60
2018-07-19T16:29:29.522Z,37.60
2018-07-19T16:31:59.296Z,35.40
2018-07-19T16:34:28.401Z,34.50
2018-07-19T16:36:57.579Z,32.50
2018-07-19T16:39:26.661Z,30.80
2018-07-19T16:41:55.860Z,32.10
2018-07-19T16:44:25.101Z,33.40
2018-07-19T16:49:22.914Z,36.50
2018-07-19T16:51:52.307Z,37.40
2018-07-19T16:54:21.883Z,38.50
2018-07-19T16:56:50.944Z,39.40
2018-07-19T16:59:20.307Z,40.20
2018-07-19T17:01:49.420Z,40.60
2018-07-19T17:04:18.536Z,40.80
2018-07-19T17:06:47.656Z,41.10
2018-07-19T17:09:16.756Z,41.20
2018-07-19T17:11:45.960Z,41.40
2018-07-19T17:14:15.125Z,41.10
2018-07-19T17:16:44.210Z,41.60
2018-07-19T17:19:13.286Z,41.50
2018-07-19T17:21:42.488Z,42.60
2018-07-19T17:24:11.565Z,42.00
2018-07-19T17:26:40.663Z,42.20
2018-07-19T17:29:09.799Z,42.40
2018-07-19T17:31:38.891Z,42.60
2018-07-19T17:34:07.930Z,43.00
2018-07-19T17:36:37.158Z,42.90
2018-07-19T17:39:09.510Z,42.90
2018-07-19T17:41:38.673Z,42.90
2018-07-19T17:46:36.447Z,43.10
2018-07-19T17:49:05.911Z,43.40
2018-07-19T17:51:35.040Z,43.70
2018-07-19T17:54:04.226Z,44.00
2018-07-19T17:56:33.330Z,44.20
2018-07-19T18:01:31.695Z,44.40
2018-07-19T18:04:00.875Z,44.80
2018-07-19T18:06:30.326Z,45.10
2018-07-19T18:08:59.557Z,45.50
2018-07-19T18:11:28.816Z,45.70
2018-07-19T18:13:57.891Z,46.00
2018-07-19T18:16:27.102Z,45.80
2018-07-19T18:18:56.132Z,46.00
2018-07-19T18:23:54.053Z,46.60
2018-07-19T18:26:23.814Z,46.80
2018-07-19T18:31:21.801Z,47.00
2018-07-19T18:36:21.492Z,47.30
2018-07-19T18:38:51.488Z,47.50
2018-07-19T18:41:20.708Z,47.50
2018-07-19T18:43:49.814Z,47.80
2018-07-19T18:46:19.597Z,47.90
2018-07-19T18:48:48.712Z,48.10
2018-07-19T18:51:18.569Z,48.50
2018-07-19T18:53:47.687Z,48.60
2018-07-19T18:56:16.802Z,49.70
2018-07-19T18:58:46.904Z,49.20
2018-07-19T19:01:15.987Z,49.30
2018-07-19T19:03:45.074Z,49.40
2018-07-19T19:06:19.112Z,49.40
2018-07-19T19:08:44.092Z,49.50
2018-07-19T19:13:42.254Z,50.00
2018-07-19T19:16:11.417Z,49.80
2018-07-19T19:18:40.471Z,49.80
2018-07-19T19:21:10.532Z,49.70
2018-07-19T19:23:39.569Z,49.40
2018-07-19T19:26:09.029Z,49.60
2018-07-19T19:28:39.121Z,49.30
2018-07-19T19:31:09.547Z,49.40
2018-07-19T19:33:39.861Z,49.20
2018-07-19T19:36:09.411Z,49.50
2018-07-19T19:38:38.562Z,49.90
2018-07-19T19:41:07.885Z,50.20
2018-07-19T19:43:37.180Z,50.40
2018-07-19T19:46:06.526Z,50.20
2018-07-19T19:48:36.338Z,50.60
2018-07-19T19:53:36.073Z,51.00
2018-07-19T19:58:34.173Z,51.40
2018-07-19T20:01:05.139Z,51.70
2018-07-19T20:03:34.198Z,51.70
2018-07-19T20:06:03.646Z,52.00
2018-07-19T20:08:32.829Z,52.10
2018-07-19T20:11:01.930Z,52.20
2018-07-19T20:13:31.993Z,52.50
2018-07-19T20:16:01.100Z,52.50
2018-07-19T20:18:30.456Z,52.70
2018-07-19T20:20:59.649Z,52.90
2018-07-19T20:23:30.086Z,52.90
2018-07-19T20:25:59.227Z,53.30
2018-07-19T20:28:28.407Z,53.20
2018-07-19T20:30:57.728Z,53.40
2018-07-19T20:33:26.860Z,53.30
2018-07-19T20:35:55.962Z,53.70
2018-07-19T20:38:25.086Z,53.90
2018-07-19T20:43:23.026Z,54.20
2018-07-19T20:45:52.094Z,54.50
2018-07-19T20:48:21.176Z,54.60
2018-07-19T20:53:19.217Z,54.50
2018-07-19T20:55:48.298Z,54.60
2018-07-19T20:58:17.425Z,54.50
2018-07-19T21:03:15.354Z,54.20
2018-07-19T21:05:46.513Z,54.40
2018-07-19T21:08:15.717Z,54.10
2018-07-19T21:10:44.979Z,54.40
2018-07-19T21:13:14.051Z,54.30
2018-07-19T21:18:11.861Z,54.60
2018-07-19T21:20:41.078Z,54.50
2018-07-19T21:23:10.253Z,54.40
2018-07-19T21:25:39.364Z,54.40
2018-07-19T21:28:08.643Z,54.80
2018-07-19T21:30:38.051Z,54.70
2018-07-19T21:33:07.306Z,54.60
2018-07-19T21:35:37.474Z,54.60
2018-07-19T21:38:06.675Z,54.30
2018-07-19T21:40:35.856Z,54.40
2018-07-19T21:43:05.105Z,54.80
2018-07-19T21:45:34.291Z,55.00
2018-07-19T21:48:03.448Z,54.90
2018-07-19T21:50:32.556Z,54.70
2018-07-19T21:53:01.788Z,55.10
2018-07-19T21:55:31.063Z,55.00
2018-07-19T21:58:00.095Z,55.40
2018-07-19T22:00:30.499Z,55.60
2018-07-19T22:03:01.439Z,56.70
2018-07-19T22:05:30.572Z,56.30
2018-07-19T22:10:28.487Z,57.00
2018-07-19T22:12:57.731Z,56.80
2018-07-19T22:15:26.960Z,56.70
2018-07-19T22:20:24.817Z,57.00
2018-07-19T22:22:53.955Z,57.20
2018-07-19T22:25:23.161Z,57.30
2018-07-19T22:27:52.320Z,57.60
2018-07-19T22:32:50.290Z,58.10
2018-07-19T22:35:19.401Z,58.30
2018-07-19T22:37:48.587Z,58.50
2018-07-19T22:40:17.885Z,59.60
2018-07-19T22:42:47.066Z,58.90
2018-07-19T22:45:17.177Z,59.20
2018-07-19T22:47:46.361Z,59.50
2018-07-19T22:50:15.522Z,59.70
2018-07-19T22:52:44.764Z,59.90
2018-07-19T22:55:13.936Z,60.30
2018-07-19T22:57:43.071Z,60.40
2018-07-19T23:00:12.222Z,60.90
2018-07-19T23:02:41.360Z,61.00
2018-07-19T23:05:11.259Z,61.40
2018-07-19T23:07:40.573Z,61.80
2018-07-19T23:10:09.668Z,62.20
2018-07-19T23:12:38.805Z,62.60
2018-07-19T23:15:07.961Z,63.10
2018-07-19T23:17:37.095Z,63.40
2018-07-19T23:25:03.786Z,64.70
2018-07-19T23:27:32.853Z,65.10
2018-07-19T23:32:30.711Z,65.70
2018-07-19T23:34:59.863Z,66.00
2018-07-19T23:37:32.260Z,66.70
2018-07-19T23:40:06.232Z,67.10
2018-07-19T23:42:42.304Z,67.40
2018-07-19T23:45:24.387Z,68.20
2018-07-19T23:47:54.029Z,68.60
2018-07-19T23:50:23.171Z,69.20
2018-07-19T23:55:21.024Z,70.00
2018-07-19T23:57:50.062Z,70.30
